Gables by the Sea, Florida
Current Conditions -  °F | °C
As of 12:53 AM on Wednesday 28 Jan 2015 (Local Time) from KTMB Reporting Station
Clear Clear  
Wind Chill: 54°   Ceiling: Unl
Heat Index: 54°   Visibility: 10mi
Dew Point: 51°   Wind: 3mph
Humidity: 90%   Direction: 260°W
Pressure: 30.06"   Gusts: NA
Location:  25.6668°N, 80.2981°W
Report Text: KTMB 280553Z AUTO 26003KT 10SM CLR 12/11 A3006 RMK AO2 SLP179 T01220106 10161 20122 58000
Loading
Personal Weather Stations






























Interactive Weather Map New forecast layout! Learn more

10-Day Weather Forecast

Advertisements
Track Severe Weather on mobile